Time;durP1;ratioP1;P1;durP2;ratioP2;P2;SDS_P1;SDS_P2;PMS_P1;PMS_P2;Temp;Humidity;BMP_temperature;BMP_pressure;BME280_temperature;BME280_humidity;BME280_pressure;Samples;Min_cycle;Max_cycle;Signal;HPM_P1;HPM_P2
2021/07/21 00:01:12;;;;;;;22.87;16.55;;;;;;;22.72;71.93;98658.50;1742736;82;21535;-40
2021/07/21 00:03:39;;;;;;;26.00;15.83;;;;;;;22.73;72.02;98657.29;1743188;82;21030;-40
2021/07/21 00:06:07;;;;;;;21.70;15.78;;;;;;;22.75;71.98;98656.84;1743109;82;20926;-40
2021/07/21 00:08:34;;;;;;;19.10;15.58;;;;;;;22.76;72.00;98657.73;1743072;82;21049;-40
2021/07/21 00:13:46;;;;;;;18.62;14.78;;;;;;;22.88;71.69;98651.32;1742957;81;21085;-40
2021/07/21 00:16:22;;;;;;;21.65;14.90;;;;;;;22.90;71.46;98650.23;1742926;81;20954;-40
2021/07/21 00:21:12;;;;;;;21.70;14.47;;;;;;;23.08;70.81;98643.19;1742911;82;21029;-40
2021/07/21 00:23:39;;;;;;;17.95;14.60;;;;;;;23.14;70.40;98651.03;1742973;82;21124;-40
2021/07/21 00:26:06;;;;;;;23.00;14.93;;;;;;;23.18;70.26;98646.88;1742947;81;20961;-40
2021/07/21 00:28:38;;;;;;;20.32;14.65;;;;;;;23.23;69.98;98649.64;1742904;81;21002;-40
2021/07/21 00:31:03;;;;;;;15.63;13.75;;;;;;;23.29;69.97;98651.92;1742908;81;21571;-40
2021/07/21 00:33:30;;;;;;;20.40;14.95;;;;;;;23.33;69.79;98656.70;1742942;82;20979;-40
2021/07/21 00:35:58;;;;;;;21.85;15.38;;;;;;;23.39;69.54;98659.75;1742882;81;21010;-40
2021/07/21 00:38:25;;;;;;;18.10;15.10;;;;;;;23.46;69.24;98660.09;1743020;81;21534;-40
2021/07/21 00:40:52;;;;;;;18.32;15.00;;;;;;;23.47;69.04;98661.64;1742951;82;20922;-40
2021/07/21 00:43:19;;;;;;;20.82;14.50;;;;;;;23.45;68.86;98660.55;1743176;82;21112;-40
2021/07/21 00:45:47;;;;;;;18.10;14.40;;;;;;;23.39;68.91;98647.31;1742880;82;21010;-40
2021/07/21 00:48:14;;;;;;;20.00;15.03;;;;;;;23.39;68.83;98650.69;1743276;81;21761;-40
2021/07/21 00:50:41;;;;;;;16.90;13.60;;;;;;;23.44;68.67;98650.68;1742889;81;21413;-40
2021/07/21 00:53:08;;;;;;;18.40;14.68;;;;;;;23.48;68.65;98651.34;1743212;82;21020;-40
2021/07/21 00:55:35;;;;;;;20.97;14.78;;;;;;;23.46;68.54;98648.27;1742903;82;21034;-40
2021/07/21 00:58:03;;;;;;;20.35;14.93;;;;;;;23.45;68.42;98648.88;1743207;82;21061;-40
2021/07/21 01:00:29;;;;;;;19.90;14.90;;;;;;;23.45;68.40;98648.88;1742981;82;21508;-40
2021/07/21 01:02:56;;;;;;;16.62;13.70;;;;;;;23.46;68.32;98646.27;1755897;81;20969;-40
2021/07/21 01:05:27;;;;;;;20.90;15.03;;;;;;;23.47;67.87;98642.27;1756338;81;20968;-40
2021/07/21 01:07:54;;;;;;;22.27;15.10;;;;;;;23.47;67.79;98645.04;1756524;81;20957;-40
2021/07/21 01:10:23;;;;;;;20.32;14.35;;;;;;;23.45;67.66;98644.72;1756343;81;21006;-40
2021/07/21 01:12:55;;;;;;;18.67;15.90;;;;;;;23.43;67.67;98632.57;1739379;81;21138;-40
2021/07/21 01:15:41;;;;;;;17.40;15.15;;;;;;;23.38;67.64;98636.73;1756341;81;21033;-40
2021/07/21 01:18:22;;;;;;;20.57;15.68;;;;;;;23.36;67.71;98625.34;1756427;81;22025;-40
2021/07/21 01:21:23;;;;;;;21.77;16.00;;;;;;;23.38;67.77;98625.66;1746875;81;21562;-40
2021/07/21 01:24:14;;;;;;;19.60;14.93;;;;;;;23.37;67.59;98629.05;1756510;81;21017;-40
2021/07/21 01:26:49;;;;;;;20.30;16.02;;;;;;;23.26;67.54;98625.20;1756078;81;21809;-40
2021/07/21 01:29:20;;;;;;;21.57;15.18;;;;;;;23.04;67.98;98602.49;1755934;81;21542;-40
2021/07/21 01:31:46;;;;;;;19.32;15.30;;;;;;;23.07;68.12;98625.83;1756103;81;21009;-40
2021/07/21 01:34:13;;;;;;;19.73;16.07;;;;;;;23.00;68.22;98628.89;1739198;81;21005;-40
2021/07/21 01:36:42;;;;;;;19.95;15.50;;;;;;;22.98;68.27;98634.73;1756276;81;21543;-40
2021/07/21 01:39:15;;;;;;;19.55;16.25;;;;;;;22.90;68.21;98630.88;1756373;81;22117;-40
2021/07/21 01:41:48;;;;;;;21.10;15.55;;;;;;;22.76;68.51;98634.25;1756170;81;21303;-40
2021/07/21 01:44:25;;;;;;;26.48;15.55;;;;;;;22.74;68.91;98637.33;1756412;81;21032;-40
2021/07/21 01:46:57;;;;;;;22.20;15.78;;;;;;;22.75;68.93;98636.11;1756412;81;21527;-40
2021/07/21 01:49:27;;;;;;;22.37;16.52;;;;;;;22.76;68.84;98643.92;1756353;81;21001;-40
2021/07/21 01:51:58;;;;;;;22.02;16.50;;;;;;;22.75;69.06;98641.00;1756662;81;21109;-40
2021/07/21 01:54:26;;;;;;;20.25;16.45;;;;;;;22.73;69.03;98642.09;1756269;81;21013;-40
2021/07/21 01:56:59;;;;;;;22.32;15.88;;;;;;;22.70;69.11;98639.45;1755915;81;21507;-40
2021/07/21 01:59:25;;;;;;;19.25;15.35;;;;;;;22.72;69.09;98642.53;1756365;81;21028;-40
2021/07/21 02:02:04;;;;;;;22.80;17.37;;;;;;;22.77;68.80;98646.08;1755544;81;21077;-41
2021/07/21 02:04:36;;;;;;;21.70;17.10;;;;;;;22.73;68.75;98647.62;1755786;81;21165;-40
2021/07/21 02:07:08;;;;;;;21.93;17.70;;;;;;;22.70;68.96;98650.50;1756335;81;21028;-40
2021/07/21 02:09:36;;;;;;;21.35;16.48;;;;;;;22.66;68.96;98651.23;1756039;80;20997;-40
2021/07/21 02:12:06;;;;;;;24.20;16.75;;;;;;;22.61;69.14;98648.47;1756447;81;20930;-40
2021/07/21 02:14:33;;;;;;;23.67;17.23;;;;;;;22.64;69.04;98650.95;1756589;81;21057;-40
2021/07/21 02:17:02;;;;;;;24.60;17.55;;;;;;;22.62;68.87;98645.09;1755275;81;21217;-40
2021/07/21 02:19:31;;;;;;;27.00;19.20;;;;;;;22.54;68.92;98655.69;1756530;81;21024;-40
2021/07/21 02:22:00;;;;;;;22.50;17.55;;;;;;;22.47;68.91;98656.73;1754701;81;20954;-40
2021/07/21 02:24:28;;;;;;;22.15;17.92;;;;;;;22.37;69.06;98659.31;1756419;81;21064;-40
2021/07/21 02:26:57;;;;;;;;;;;;;;;22.36;69.08;98658.40;1754147;81;21040;-40
2021/07/21 02:29:24;;;;;;;23.52;17.80;;;;;;;22.34;69.25;98664.98;1756586;81;21130;-40
2021/07/21 02:32:20;;;;;;;25.75;18.52;;;;;;;22.22;69.58;98663.11;1756278;81;20956;-40
2021/07/21 02:34:47;;;;;;;23.52;16.80;;;;;;;22.21;69.71;98668.47;1756512;81;21546;-40
2021/07/21 02:37:18;;;;;;;21.80;17.32;;;;;;;22.20;69.70;98675.98;1756309;81;20985;-40
2021/07/21 02:39:47;;;;;;;22.45;17.60;;;;;;;22.23;69.61;98671.53;1756431;81;21004;-40
2021/07/21 02:42:15;;;;;;;22.27;17.77;;;;;;;22.23;69.69;98672.30;1756434;81;21051;-40
2021/07/21 02:44:44;;;;;;;23.70;17.75;;;;;;;22.24;69.68;98675.22;1756657;81;20961;-40
2021/07/21 02:47:12;;;;;;;19.40;17.15;;;;;;;22.22;69.71;98678.30;1739500;81;21083;-40
2021/07/21 02:49:42;;;;;;;19.20;16.60;;;;;;;22.22;69.77;98675.53;1756402;81;21752;-40
2021/07/21 02:52:22;;;;;;;21.70;18.27;;;;;;;22.25;69.73;98678.76;1756374;81;21001;-40
2021/07/21 02:55:09;;;;;;;;;;;;;;;22.24;69.55;98683.51;1759211;81;21099;-40
2021/07/21 02:57:54;;;;;;;22.75;17.92;;;;;;;22.22;69.83;98683.18;1756453;81;20204;-40
2021/07/21 03:00:26;;;;;;;22.13;17.50;;;;;;;22.09;70.18;98679.15;1756501;81;20992;-40
2021/07/21 03:02:57;;;;;;;22.50;17.95;;;;;;;22.18;70.01;98680.41;1746633;81;21073;-40
2021/07/21 03:05:26;;;;;;;25.45;17.27;;;;;;;21.98;69.74;98642.13;1743130;82;21081;-40
2021/07/21 03:07:57;;;;;;;25.32;17.65;;;;;;;22.22;69.38;98681.80;1742665;81;21476;-40
2021/07/21 03:10:26;;;;;;;22.37;17.77;;;;;;;22.19;69.50;98680.56;1732761;82;21527;-40
2021/07/21 03:13:17;;;;;;;20.77;16.27;;;;;;;22.14;69.14;98683.31;1731123;82;20989;-40
2021/07/21 03:15:48;;;;;;;19.32;16.40;;;;;;;22.10;69.09;98688.98;1742750;81;21012;-40
2021/07/21 03:18:20;;;;;;;21.15;16.40;;;;;;;22.07;69.21;98691.24;1743056;82;21037;-40
2021/07/21 03:20:49;;;;;;;20.35;15.85;;;;;;;22.04;69.01;98694.92;1740098;81;21413;-40
2021/07/21 03:23:15;;;;;;;18.95;15.32;;;;;;;21.99;69.04;98699.64;1734497;82;20898;-40
2021/07/21 03:25:44;;;;;;;18.23;16.05;;;;;;;22.00;68.90;98692.14;1712571;82;21049;-40
2021/07/21 03:28:12;;;;;;;21.52;14.23;;;;;;;21.98;69.04;98698.09;1734506;82;21049;-40
2021/07/21 03:30:47;;;;;;;18.90;13.58;;;;;;;22.04;68.92;98697.68;1728649;82;21045;-40
2021/07/21 03:33:14;;;;;;;16.35;14.23;;;;;;;22.09;68.70;98692.95;1657526;83;21121;-40
2021/07/21 03:35:42;;;;;;;18.10;14.43;;;;;;;22.10;68.65;98700.02;1713122;82;20985;-40
2021/07/21 03:38:10;;;;;;;18.35;14.33;;;;;;;22.07;68.56;98705.05;1713399;82;21526;-40
2021/07/21 03:40:39;;;;;;;20.68;14.35;;;;;;;22.06;68.62;98711.81;1713539;82;21020;-40
2021/07/21 03:43:13;;;;;;;16.90;14.00;;;;;;;22.03;68.74;98707.17;1712188;82;21535;-40
2021/07/21 03:45:42;;;;;;;17.20;13.80;;;;;;;22.05;68.72;98706.13;1713188;82;21117;-40
2021/07/21 03:48:09;;;;;;;17.75;13.78;;;;;;;22.09;68.74;98710.89;1713369;83;21539;-40
2021/07/21 03:50:37;;;;;;;18.55;13.68;;;;;;;22.13;68.53;98710.75;1711755;83;21057;-40
2021/07/21 03:53:05;;;;;;;17.15;14.05;;;;;;;22.10;68.46;98713.83;1713430;82;20991;-40
2021/07/21 03:55:36;;;;;;;17.17;13.85;;;;;;;22.06;68.64;98713.80;1703258;83;21571;-40
2021/07/21 03:58:05;;;;;;;16.73;13.68;;;;;;;22.01;68.58;98706.88;1713547;82;21115;-40
2021/07/21 04:00:49;;;;;;;16.37;12.95;;;;;;;21.96;68.53;98712.20;1713334;82;20974;-40
2021/07/21 04:03:17;;;;;;;16.50;13.25;;;;;;;21.89;68.85;98713.20;1722399;82;20976;-40
2021/07/21 04:05:46;;;;;;;17.90;13.25;;;;;;;21.87;69.10;98716.27;1725387;82;21542;-40
2021/07/21 04:08:14;;;;;;;18.45;14.35;;;;;;;21.87;69.35;98721.18;1726272;83;21024;-40
2021/07/21 04:10:42;;;;;;;16.93;12.98;;;;;;;21.88;69.15;98718.55;1709896;83;21134;-40
2021/07/21 04:13:10;;;;;;;16.02;13.25;;;;;;;21.84;69.24;98720.69;1726259;83;21061;-40
2021/07/21 04:15:56;;;;;;;15.10;13.50;;;;;;;21.85;69.41;98720.08;1725651;82;21032;-40
2021/07/21 04:18:24;;;;;;;18.57;13.13;;;;;;;21.82;69.74;98721.77;1746100;81;21534;-40
2021/07/21 04:20:52;;;;;;;16.00;12.37;;;;;;;21.88;69.53;98723.33;1756274;81;21025;-40
2021/07/21 04:23:20;;;;;;;17.10;13.60;;;;;;;21.93;69.37;98725.52;1756320;81;21145;-40
2021/07/21 04:25:49;;;;;;;16.27;12.93;;;;;;;21.98;69.22;98732.60;1756180;81;21527;-40
2021/07/21 04:28:17;;;;;;;16.35;12.47;;;;;;;21.98;69.11;98731.83;1756721;81;21005;-40
2021/07/21 04:30:45;;;;;;;18.27;12.85;;;;;;;21.99;69.29;98732.77;1754758;81;20997;-40
2021/07/21 04:33:12;;;;;;;16.75;11.90;;;;;;;22.02;69.11;98734.64;1756662;81;21044;-40
2021/07/21 04:35:40;;;;;;;16.42;11.95;;;;;;;22.01;69.08;98730.95;1756468;81;21859;-40
2021/07/21 04:38:09;;;;;;;15.43;12.50;;;;;;;21.73;69.05;98689.98;1756535;81;21047;-40
2021/07/21 04:40:43;;;;;;;14.85;11.73;;;;;;;21.94;69.07;98731.97;1726744;81;20929;-40
2021/07/21 04:43:24;;;;;;;14.47;11.12;;;;;;;21.89;69.72;98725.63;1756383;81;20969;-40
2021/07/21 04:45:53;;;;;;;14.05;12.03;;;;;;;21.92;69.72;98731.64;1756196;81;21029;-40
2021/07/21 04:48:21;;;;;;;17.82;12.58;;;;;;;21.99;69.42;98730.01;1739751;81;21057;-40
2021/07/21 04:50:55;;;;;;;15.40;12.45;;;;;;;22.02;69.55;98726.36;1755742;81;21033;-40
2021/07/21 04:53:22;;;;;;;13.90;11.38;;;;;;;22.04;69.53;98722.52;1756214;81;20980;-40
2021/07/21 04:55:49;;;;;;;14.00;11.03;;;;;;;22.03;69.25;98730.64;1756357;81;21080;-40
2021/07/21 04:58:16;;;;;;;13.83;11.80;;;;;;;22.06;69.04;98723.46;1756163;81;21016;-40
2021/07/21 05:00:44;;;;;;;13.62;10.93;;;;;;;22.07;69.17;98727.13;1756233;81;21079;-40
2021/07/21 05:03:16;;;;;;;13.15;10.70;;;;;;;22.08;69.26;98729.28;1756239;81;21078;-40
2021/07/21 05:05:44;;;;;;;15.80;10.93;;;;;;;22.13;69.15;98734.83;1756202;81;21076;-40
2021/07/21 05:08:11;;;;;;;13.80;10.82;;;;;;;22.18;69.05;98734.24;1756303;81;21013;-41
2021/07/21 05:10:40;;;;;;;13.00;10.25;;;;;;;22.26;68.87;98739.06;1754761;81;21009;-40
2021/07/21 05:13:08;;;;;;;14.55;11.00;;;;;;;22.32;68.69;98737.84;1756476;81;21790;-40
2021/07/21 05:15:36;;;;;;;14.93;10.23;;;;;;;22.37;68.20;98742.77;1756511;81;20989;-40
2021/07/21 05:18:11;;;;;;;11.60;9.60;;;;;;;22.41;68.11;98737.91;1755753;81;20921;-40
2021/07/21 05:20:43;;;;;;;12.47;9.85;;;;;;;22.35;67.81;98737.72;1755452;81;21064;-40
2021/07/21 05:23:11;;;;;;;13.90;9.13;;;;;;;22.34;68.10;98736.17;1720347;83;21073;-40
2021/07/21 05:25:42;;;;;;;13.00;9.40;;;;;;;22.41;67.51;98742.79;1713897;83;21144;-40
2021/07/21 05:28:28;;;;;;;12.88;9.48;;;;;;;22.47;67.07;98734.69;1720576;83;21005;-40
2021/07/21 05:30:56;;;;;;;14.63;9.35;;;;;;;22.52;66.87;98736.85;1720509;83;20924;-40
2021/07/21 05:33:23;;;;;;;12.23;9.53;;;;;;;22.59;66.57;98730.29;1720492;83;21455;-40
2021/07/21 05:35:51;;;;;;;10.25;8.78;;;;;;;22.64;66.17;98731.84;1720418;83;21076;-40
2021/07/21 05:38:20;;;;;;;14.23;9.10;;;;;;;22.68;65.79;98729.70;1713931;83;21151;-41
2021/07/21 05:40:48;;;;;;;11.78;8.65;;;;;;;22.71;65.41;98731.58;1720544;83;22148;-40
2021/07/21 05:43:29;;;;;;;12.45;9.00;;;;;;;22.72;65.36;98730.96;1718416;83;21036;-40
2021/07/21 05:45:56;;;;;;;14.00;8.68;;;;;;;22.73;65.68;98727.75;1720129;83;21286;-41
2021/07/21 05:48:25;;;;;;;13.55;9.43;;;;;;;22.76;65.70;98726.83;1719929;83;21538;-40
2021/07/21 05:51:05;;;;;;;13.35;8.43;;;;;;;22.77;65.45;98726.98;1702783;83;21951;-40
2021/07/21 05:53:32;;;;;;;11.85;9.08;;;;;;;22.77;65.49;98731.14;1720389;83;21035;-40
2021/07/21 05:56:00;;;;;;;13.85;8.88;;;;;;;22.79;64.97;98725.16;1720641;83;21593;-40
2021/07/21 05:58:29;;;;;;;14.70;9.68;;;;;;;22.79;64.90;98724.55;1719668;83;21091;-40
2021/07/21 06:00:55;;;;;;;13.20;9.15;;;;;;;22.82;64.88;98725.02;1720720;83;21054;-41
2021/07/21 06:03:24;;;;;;;13.25;8.95;;;;;;;22.84;64.89;98725.94;1714237;83;21126;-41
2021/07/21 06:06:02;;;;;;;14.13;8.80;;;;;;;22.83;64.84;98729.31;1708863;84;21543;-40
2021/07/21 06:08:44;;;;;;;14.68;9.25;;;;;;;22.86;64.24;98720.70;1726157;81;21602;-40
2021/07/21 06:11:19;;;;;;;12.40;9.08;;;;;;;22.88;64.20;98725.18;1707379;83;21007;-40
2021/07/21 06:13:47;;;;;;;13.20;9.68;;;;;;;22.86;64.78;98727.62;1707587;84;21013;-41
2021/07/21 06:16:15;;;;;;;15.10;9.45;;;;;;;22.83;64.14;98730.70;1743348;81;21118;-41
2021/07/21 06:18:44;;;;;;;11.43;9.38;;;;;;;22.81;64.59;98733.14;1707689;84;21003;-41
2021/07/21 06:21:11;;;;;;;11.78;8.35;;;;;;;22.81;64.68;98731.75;1707887;84;20945;-41
2021/07/21 06:23:40;;;;;;;14.18;9.38;;;;;;;22.88;64.68;98731.48;1741977;81;21057;-41
2021/07/21 06:26:08;;;;;;;11.93;8.90;;;;;;;23.02;64.59;98733.49;1707671;84;20997;-41
2021/07/21 06:28:37;;;;;;;13.65;9.00;;;;;;;23.10;64.80;98733.34;1707555;84;21824;-40
2021/07/21 06:31:03;;;;;;;14.23;8.90;;;;;;;23.18;64.63;98730.45;1732601;82;21607;-41
2021/07/21 06:33:32;;;;;;;14.30;8.68;;;;;;;23.22;64.26;98733.22;1707488;83;20981;-41
2021/07/21 06:36:02;;;;;;;;;;;;;;;23.23;63.72;98729.84;1745987;81;20922;-41
2021/07/21 06:38:31;;;;;;;9.50;8.47;;;;;;;23.22;64.30;98729.69;1743296;81;20209;-41
2021/07/21 06:41:17;;;;;;;11.20;8.70;;;;;;;23.16;64.18;98730.13;1706392;84;21647;-41
2021/07/21 06:43:44;;;;;;;11.28;9.05;;;;;;;23.18;64.21;98730.45;1743165;82;21511;-41
2021/07/21 06:46:13;;;;;;;12.37;9.33;;;;;;;23.20;64.48;98731.52;1706692;84;21009;-41
2021/07/21 06:48:41;;;;;;;12.58;8.90;;;;;;;23.25;64.23;98735.66;1732625;82;21084;-41
2021/07/21 06:51:08;;;;;;;17.15;8.83;;;;;;;23.29;63.92;98728.75;1707287;84;21055;-41
2021/07/21 06:53:35;;;;;;;11.20;8.53;;;;;;;23.26;63.54;98736.60;1707759;84;21189;-41
2021/07/21 06:56:14;;;;;;;14.85;8.68;;;;;;;23.28;63.85;98743.06;1743122;81;20966;-41
2021/07/21 06:58:45;;;;;;;13.83;8.88;;;;;;;23.36;64.03;98742.91;1742183;81;21053;-41
2021/07/21 07:01:14;;;;;;;13.98;8.40;;;;;;;23.49;63.74;98745.54;1707053;84;20937;-41
2021/07/21 07:03:59;;;;;;;13.83;8.80;;;;;;;23.54;63.09;98742.16;1711665;83;21052;-41
2021/07/21 07:06:39;;;;;;;10.65;8.23;;;;;;;23.56;62.96;98734.17;1710752;83;21146;-41
2021/07/21 07:09:08;;;;;;;12.25;8.63;;;;;;;23.62;63.35;98745.56;1710945;83;21573;-41
2021/07/21 07:11:54;;;;;;;10.75;8.80;;;;;;;23.70;63.32;98741.23;1715095;83;21004;-41
2021/07/21 07:14:21;;;;;;;11.50;8.48;;;;;;;23.73;62.85;98745.84;1715132;83;21068;-41
2021/07/21 07:16:48;;;;;;;12.25;8.88;;;;;;;23.73;63.29;98743.06;1715248;83;21566;-41
2021/07/21 07:19:14;;;;;;;13.20;8.63;;;;;;;23.81;62.89;98740.16;1751258;82;21807;-41
2021/07/21 07:21:42;;;;;;;16.00;8.35;;;;;;;23.86;61.59;98745.69;1714875;83;20933;-41
2021/07/21 07:24:09;;;;;;;13.72;8.88;;;;;;;23.85;61.43;98746.14;1751270;82;20973;-41
2021/07/21 07:26:36;;;;;;;13.70;9.60;;;;;;;23.81;60.18;98746.30;1750963;82;21476;-41
2021/07/21 07:29:04;;;;;;;15.00;9.35;;;;;;;23.76;60.66;98744.16;1751341;82;21021;-41
2021/07/21 07:31:32;;;;;;;13.85;9.80;;;;;;;23.71;60.77;98754.47;1751317;82;21182;-41
2021/07/21 07:33:59;;;;;;;15.75;9.10;;;;;;;23.71;61.57;98754.47;1715058;83;21582;-41
2021/07/21 07:36:26;;;;;;;13.03;9.28;;;;;;;23.76;61.66;98753.84;1751131;82;21469;-41
2021/07/21 07:38:52;;;;;;;12.68;8.55;;;;;;;23.80;60.92;98757.99;1751107;82;21463;-41
2021/07/21 07:41:22;;;;;;;13.08;8.88;;;;;;;23.88;61.21;98760.42;1751156;82;21535;-41
2021/07/21 07:43:52;;;;;;;11.73;8.38;;;;;;;23.95;60.95;98759.51;1715076;83;21100;-41
2021/07/21 07:46:20;;;;;;;12.03;7.95;;;;;;;24.04;61.15;98764.26;1751187;82;20997;-41
2021/07/21 07:48:47;;;;;;;11.90;8.60;;;;;;;24.11;60.86;98756.99;1714723;83;21083;-41
2021/07/21 07:51:13;;;;;;;13.00;8.53;;;;;;;24.20;60.05;98761.18;1745578;82;21050;-41
2021/07/21 07:53:40;;;;;;;12.55;8.30;;;;;;;24.32;59.51;98762.20;1715097;83;20981;-41
2021/07/21 07:56:06;;;;;;;13.32;8.68;;;;;;;24.41;59.41;98760.17;1751107;82;21823;-41
2021/07/21 07:58:34;;;;;;;11.83;8.53;;;;;;;24.40;58.95;98763.43;1750885;82;21015;-41
2021/07/21 08:01:00;;;;;;;11.93;8.40;;;;;;;24.39;59.84;98768.20;1715175;83;21052;-41
2021/07/21 08:03:27;;;;;;;10.43;7.83;;;;;;;24.47;59.90;98763.86;1750494;82;21527;-41
2021/07/21 08:05:55;;;;;;;14.30;8.53;;;;;;;24.65;59.32;98763.77;1710687;83;21057;-41
2021/07/21 08:08:22;;;;;;;11.93;7.72;;;;;;;24.86;59.61;98763.98;1748677;81;21140;-41
2021/07/21 08:10:48;;;;;;;14.68;8.08;;;;;;;25.04;58.63;98763.91;1748873;82;21013;-41
2021/07/21 08:13:15;;;;;;;10.28;8.00;;;;;;;25.17;58.12;98759.53;1748514;82;20989;-41
2021/07/21 08:15:42;;;;;;;11.55;7.95;;;;;;;25.32;56.96;98760.35;1748704;82;21001;-41
2021/07/21 08:18:10;;;;;;;10.60;8.10;;;;;;;25.42;56.65;98755.62;1748646;82;21057;-41
2021/07/21 08:20:36;;;;;;;12.93;8.53;;;;;;;25.60;57.52;98761.70;1748683;82;21182;-41
2021/07/21 08:23:03;;;;;;;11.97;7.78;;;;;;;25.79;55.17;98753.97;1748504;82;21602;-41
2021/07/21 08:25:30;;;;;;;10.78;7.75;;;;;;;25.92;55.63;98758.00;1748462;82;20953;-41
2021/07/21 08:27:58;;;;;;;11.80;7.97;;;;;;;26.02;53.65;98763.47;1748734;82;21037;-41
2021/07/21 08:30:25;;;;;;;11.15;7.65;;;;;;;26.04;53.90;98758.98;1748602;82;21551;-41
2021/07/21 08:32:53;;;;;;;10.48;7.70;;;;;;;26.10;53.32;98763.98;1748624;82;21949;-41
2021/07/21 08:35:26;;;;;;;12.43;7.22;;;;;;;26.17;53.04;98764.23;1748714;82;21545;-41
2021/07/21 08:37:52;;;;;;;13.45;7.25;;;;;;;26.22;52.61;98764.36;1748780;82;21025;-41
2021/07/21 08:40:20;;;;;;;10.75;7.15;;;;;;;26.32;52.47;98761.63;1748550;82;21051;-41
2021/07/21 08:42:47;;;;;;;8.85;7.40;;;;;;;26.41;51.83;98764.16;1748485;82;20969;-41
2021/07/21 08:45:14;;;;;;;8.78;6.75;;;;;;;26.48;52.25;98767.30;1748625;82;22041;-41
2021/07/21 08:47:41;;;;;;;10.53;7.53;;;;;;;26.52;49.87;98762.95;1748179;82;20941;-41
2021/07/21 08:50:09;;;;;;;9.25;6.87;;;;;;;26.44;50.41;98764.56;1748585;82;20957;-41
2021/07/21 08:52:38;;;;;;;9.40;6.83;;;;;;;26.39;50.15;98763.23;1748657;82;21057;-41
2021/07/21 08:55:08;;;;;;;9.40;6.78;;;;;;;26.39;49.77;98759.84;1748705;82;21080;-41
2021/07/21 08:57:36;;;;;;;8.00;6.55;;;;;;;26.42;49.92;98768.47;1748206;82;21842;-41
2021/07/21 09:00:13;;;;;;;9.75;6.55;;;;;;;26.47;50.50;98762.23;1748686;82;20981;-41
2021/07/21 09:02:40;;;;;;;9.63;6.75;;;;;;;26.51;50.56;98765.58;1748441;82;21554;-41
2021/07/21 09:05:09;;;;;;;7.97;6.60;;;;;;;26.50;50.96;98761.27;1748464;81;21005;-41
2021/07/21 09:07:38;;;;;;;8.75;6.72;;;;;;;26.48;50.61;98765.16;1748663;82;21037;-41
2021/07/21 09:10:09;;;;;;;8.63;6.37;;;;;;;26.48;50.37;98762.38;1748432;82;21248;-41
2021/07/21 09:12:45;;;;;;;11.05;6.97;;;;;;;26.47;50.62;98765.02;1748588;82;20918;-41
2021/07/21 09:15:20;;;;;;;7.08;6.25;;;;;;;26.50;50.82;98759.25;1748807;82;21021;-41
2021/07/21 09:19:41;;;;;;;10.60;7.03;;;;;;;26.66;50.92;98762.92;1814962;79;22726;-41
2021/07/21 09:22:29;;;;;;;10.05;6.45;;;;;;;26.63;50.79;98763.87;1787945;80;21487;-40
2021/07/21 09:25:18;;;;;;;6.95;6.08;;;;;;;26.64;51.17;98765.41;1788346;80;21791;-41
2021/07/21 09:27:49;;;;;;;6.83;5.67;;;;;;;26.62;50.91;98765.77;1788556;80;20960;-41
2021/07/21 09:30:18;;;;;;;8.43;5.72;;;;;;;26.56;51.30;98773.23;1788013;80;21004;-41
2021/07/21 09:33:16;;;;;;;9.60;6.00;;;;;;;26.50;51.14;98768.20;1787601;80;21569;-41
2021/07/21 09:35:48;;;;;;;7.55;5.67;;;;;;;26.44;51.58;98765.34;1788194;80;21629;-40
2021/07/21 09:38:20;;;;;;;9.73;6.45;;;;;;;26.38;51.36;98767.28;1788327;80;21094;-41
2021/07/21 09:40:55;;;;;;;9.90;6.22;;;;;;;26.38;51.79;98768.02;1788038;80;21523;-41
2021/07/21 09:43:28;;;;;;;7.70;5.80;;;;;;;26.45;51.22;98764.72;1788171;80;20961;-41
2021/07/21 09:46:06;;;;;;;6.85;5.80;;;;;;;26.31;51.50;98731.53;1787975;80;20965;-40
2021/07/21 09:48:45;;;;;;;6.95;5.45;;;;;;;26.64;50.77;98752.13;1788439;80;21084;-41
2021/07/21 09:51:31;;;;;;;8.15;5.80;;;;;;;26.72;50.69;98751.88;1788060;80;22044;-41
2021/07/21 09:54:15;;;;;;;7.62;6.08;;;;;;;26.74;50.08;98750.77;1783794;80;21585;-41
2021/07/21 09:56:47;;;;;;;5.97;5.37;;;;;;;26.75;50.59;98748.12;1787906;80;20973;-41
2021/07/21 09:59:25;;;;;;;6.62;5.58;;;;;;;26.74;50.27;98752.16;1788236;80;21072;-41
2021/07/21 10:01:53;;;;;;;7.87;5.90;;;;;;;26.76;50.34;98748.27;1788123;80;21012;-41
2021/07/21 10:04:39;;;;;;;9.45;5.65;;;;;;;26.80;50.23;98753.77;1787994;80;21090;-41
2021/07/21 10:09:51;;;;;;;7.67;5.40;;;;;;;27.08;48.85;98744.44;1788106;80;21008;-41
2021/07/21 10:12:18;;;;;;;8.40;5.10;;;;;;;27.25;49.12;98745.41;1787993;80;21092;-41
2021/07/21 10:14:57;;;;;;;7.40;5.87;;;;;;;27.39;48.35;98737.48;1788113;80;21522;-41
2021/07/21 10:17:25;;;;;;;6.78;5.80;;;;;;;27.48;48.40;98753.41;1788077;80;21142;-41
2021/07/21 10:19:51;;;;;;;8.05;5.50;;;;;;;27.56;47.97;98751.75;1780216;80;21558;-41
2021/07/21 10:22:18;;;;;;;7.72;5.45;;;;;;;27.64;47.67;98746.54;1780377;80;20961;-41
2021/07/21 10:24:45;;;;;;;6.95;5.12;;;;;;;27.79;47.74;98743.66;1779957;80;20969;-41
2021/07/21 10:27:11;;;;;;;6.80;5.47;;;;;;;27.94;47.35;98745.05;1780139;80;20937;-41
2021/07/21 10:29:38;;;;;;;5.92;5.33;;;;;;;27.99;47.37;98748.52;1779786;80;21141;-41
2021/07/21 10:32:07;;;;;;;7.47;5.67;;;;;;;27.97;47.03;98753.84;1779424;80;21029;-41
2021/07/21 10:34:33;;;;;;;7.55;5.00;;;;;;;27.80;46.17;98757.07;1710739;83;21097;-41
2021/07/21 10:37:00;;;;;;;6.55;4.87;;;;;;;27.54;47.25;98760.47;1779695;80;20965;-41
2021/07/21 10:39:33;;;;;;;6.17;4.97;;;;;;;27.37;47.73;98760.86;1779470;80;20958;-41
2021/07/21 10:42:10;;;;;;;8.05;4.97;;;;;;;27.17;48.29;98761.00;1779484;80;22157;-41
2021/07/21 10:44:38;;;;;;;8.13;4.85;;;;;;;26.89;49.06;98769.59;1779307;80;20957;-41
2021/07/21 10:47:25;;;;;;;6.78;4.83;;;;;;;26.64;50.00;98759.08;1779488;80;20966;-40
2021/07/21 10:50:03;;;;;;;7.80;4.83;;;;;;;26.48;50.44;98763.12;1710573;83;27114;-41
2021/07/21 10:52:41;;;;;;;9.25;4.65;;;;;;;26.32;51.05;98759.47;1778880;80;21044;-40
2021/07/21 11:00:34;;;;;;;6.03;4.00;;;;;;;26.14;50.09;98760.39;1779688;80;20988;-40
2021/07/21 11:03:28;;;;;;;8.85;3.58;;;;;;;26.10;50.79;98757.04;1769465;80;21017;-40
2021/07/21 11:06:07;;;;;;;4.67;3.67;;;;;;;26.13;50.56;98764.44;1780148;80;21048;-40
2021/07/21 11:08:50;;;;;;;8.20;3.83;;;;;;;26.26;50.06;98762.16;1779619;80;21191;-41
2021/07/21 11:11:20;;;;;;;4.42;3.62;;;;;;;26.38;50.47;98752.73;1779935;80;20917;-41
2021/07/21 11:13:58;;;;;;;13.98;4.20;;;;;;;26.59;50.97;98751.41;1779593;80;20977;-41
2021/07/21 11:16:48;;;;;;;7.40;4.20;;;;;;;26.81;50.12;98743.41;1777760;80;21016;-41
2021/07/21 11:19:31;;;;;;;6.03;3.87;;;;;;;27.00;49.07;98742.56;1696613;83;21014;-41
2021/07/21 11:22:18;;;;;;;5.28;3.40;;;;;;;27.08;49.46;98743.05;1762734;80;21542;-41
2021/07/21 11:25:10;;;;;;;4.42;3.45;;;;;;;27.17;49.04;98744.30;1685657;84;21041;-41
2021/07/21 11:27:44;;;;;;;4.83;3.62;;;;;;;27.23;47.68;98746.53;1735176;81;21032;-41
2021/07/21 11:30:45;;;;;;;6.53;3.60;;;;;;;27.17;46.88;98748.47;1762735;81;21026;-40
2021/07/21 11:33:54;;;;;;;5.58;3.02;;;;;;;27.11;47.13;98751.06;1687844;84;20985;-41
2021/07/21 11:36:46;;;;;;;8.83;3.60;;;;;;;27.05;46.29;98757.17;1762639;80;21140;-41
2021/07/21 11:39:48;;;;;;;5.90;3.00;;;;;;;26.89;45.63;98752.91;1759200;81;21057;-41
2021/07/21 11:42:40;;;;;;;5.72;2.95;;;;;;;26.76;45.64;98755.23;1687477;85;21029;-41
2021/07/21 11:45:12;;;;;;;5.25;2.62;;;;;;;26.66;44.78;98757.36;1762524;80;21034;-41
2021/07/21 11:47:44;;;;;;;4.62;2.70;;;;;;;26.63;45.06;98768.04;1681452;84;20978;-41
2021/07/21 11:50:17;;;;;;;5.58;2.70;;;;;;;26.64;45.38;98771.59;1762596;81;21879;-41
2021/07/21 11:53:00;;;;;;;6.42;2.70;;;;;;;26.67;42.91;98763.69;1687349;85;21018;-41
2021/07/21 11:55:30;;;;;;;3.83;2.80;;;;;;;26.69;43.98;98761.95;1762629;81;21006;-41
2021/07/21 11:57:57;;;;;;;3.22;2.50;;;;;;;26.82;45.31;98765.78;1687486;85;21066;-41
2021/07/21 12:00:25;;;;;;;3.98;2.95;;;;;;;27.03;44.09;98759.66;1762654;81;20971;-41